sensor_id;sensor_type;location;lat;lon;timestamp;P1;durP1;ratioP1;P2;durP2;ratioP2
78860;SDS011;68211;45.774;15.892;2023-03-07T00:00:11;9.80;;;8.23;;
78860;SDS011;68211;45.774;15.892;2023-03-07T00:02:38;8.90;;;8.05;;
78860;SDS011;68211;45.774;15.892;2023-03-07T00:05:05;10.65;;;9.05;;
78860;SDS011;68211;45.774;15.892;2023-03-07T00:07:33;9.60;;;8.68;;
78860;SDS011;68211;45.774;15.892;2023-03-07T00:09:59;10.20;;;8.40;;
78860;SDS011;68211;45.774;15.892;2023-03-07T00:12:26;10.38;;;8.77;;
78860;SDS011;68211;45.774;15.892;2023-03-07T00:14:54;11.45;;;9.60;;
78860;SDS011;68211;45.774;15.892;2023-03-07T00:17:20;11.30;;;10.13;;
78860;SDS011;68211;45.774;15.892;2023-03-07T00:19:46;11.13;;;9.20;;
78860;SDS011;68211;45.774;15.892;2023-03-07T00:22:13;11.00;;;9.63;;
78860;SDS011;68211;45.774;15.892;2023-03-07T00:24:41;11.20;;;10.00;;
78860;SDS011;68211;45.774;15.892;2023-03-07T00:27:07;11.68;;;9.98;;
78860;SDS011;68211;45.774;15.892;2023-03-07T00:29:34;14.45;;;9.73;;
78860;SDS011;68211;45.774;15.892;2023-03-07T00:32:00;11.00;;;8.80;;
78860;SDS011;68211;45.774;15.892;2023-03-07T00:34:27;10.20;;;9.18;;
78860;SDS011;68211;45.774;15.892;2023-03-07T00:36:53;12.10;;;9.95;;
78860;SDS011;68211;45.774;15.892;2023-03-07T00:39:20;11.93;;;9.95;;
78860;SDS011;68211;45.774;15.892;2023-03-07T00:41:48;11.32;;;10.10;;
78860;SDS011;68211;45.774;15.892;2023-03-07T00:44:14;13.18;;;9.98;;
78860;SDS011;68211;45.774;15.892;2023-03-07T00:46:41;11.82;;;8.93;;
78860;SDS011;68211;45.774;15.892;2023-03-07T00:49:07;11.30;;;10.05;;
78860;SDS011;68211;45.774;15.892;2023-03-07T00:51:34;15.80;;;10.98;;
78860;SDS011;68211;45.774;15.892;2023-03-07T00:54:00;12.23;;;10.38;;
78860;SDS011;68211;45.774;15.892;2023-03-07T00:56:26;13.35;;;10.90;;
78860;SDS011;68211;45.774;15.892;2023-03-07T00:58:54;12.20;;;10.65;;
78860;SDS011;68211;45.774;15.892;2023-03-07T01:01:21;12.82;;;11.02;;
78860;SDS011;68211;45.774;15.892;2023-03-07T01:03:48;12.18;;;10.02;;
78860;SDS011;68211;45.774;15.892;2023-03-07T01:06:16;14.50;;;10.63;;
78860;SDS011;68211;45.774;15.892;2023-03-07T01:08:43;13.98;;;11.48;;
78860;SDS011;68211;45.774;15.892;2023-03-07T01:11:10;14.13;;;11.90;;
78860;SDS011;68211;45.774;15.892;2023-03-07T01:13:37;18.70;;;12.75;;
78860;SDS011;68211;45.774;15.892;2023-03-07T01:16:08;14.90;;;11.82;;
78860;SDS011;68211;45.774;15.892;2023-03-07T01:18:35;18.00;;;12.57;;
78860;SDS011;68211;45.774;15.892;2023-03-07T01:21:01;15.57;;;12.68;;
78860;SDS011;68211;45.774;15.892;2023-03-07T01:23:35;16.08;;;12.65;;
78860;SDS011;68211;45.774;15.892;2023-03-07T01:26:01;16.08;;;13.35;;
78860;SDS011;68211;45.774;15.892;2023-03-07T01:28:28;13.88;;;11.50;;
78860;SDS011;68211;45.774;15.892;2023-03-07T01:30:58;13.85;;;12.38;;
78860;SDS011;68211;45.774;15.892;2023-03-07T01:33:25;13.70;;;11.70;;
78860;SDS011;68211;45.774;15.892;2023-03-07T01:35:52;15.52;;;12.10;;
78860;SDS011;68211;45.774;15.892;2023-03-07T01:38:19;13.23;;;11.82;;
78860;SDS011;68211;45.774;15.892;2023-03-07T01:40:45;16.60;;;13.82;;
78860;SDS011;68211;45.774;15.892;2023-03-07T01:43:18;19.92;;;15.63;;
78860;SDS011;68211;45.774;15.892;2023-03-07T01:48:33;15.25;;;12.65;;
78860;SDS011;68211;45.774;15.892;2023-03-07T01:50:59;17.73;;;15.00;;
78860;SDS011;68211;45.774;15.892;2023-03-07T01:53:26;18.30;;;14.70;;
78860;SDS011;68211;45.774;15.892;2023-03-07T01:55:52;20.73;;;14.35;;
78860;SDS011;68211;45.774;15.892;2023-03-07T01:58:19;18.33;;;14.13;;
78860;SDS011;68211;45.774;15.892;2023-03-07T02:00:45;18.75;;;15.80;;
78860;SDS011;68211;45.774;15.892;2023-03-07T02:03:15;18.92;;;15.30;;
78860;SDS011;68211;45.774;15.892;2023-03-07T02:05:46;16.80;;;13.55;;
78860;SDS011;68211;45.774;15.892;2023-03-07T02:08:14;20.10;;;14.65;;
78860;SDS011;68211;45.774;15.892;2023-03-07T02:10:41;18.08;;;15.50;;
78860;SDS011;68211;45.774;15.892;2023-03-07T02:13:08;18.83;;;15.70;;
78860;SDS011;68211;45.774;15.892;2023-03-07T02:15:35;17.42;;;13.68;;
78860;SDS011;68211;45.774;15.892;2023-03-07T02:18:02;21.98;;;16.30;;
78860;SDS011;68211;45.774;15.892;2023-03-07T02:20:30;19.65;;;14.95;;
78860;SDS011;68211;45.774;15.892;2023-03-07T02:23:01;16.02;;;14.32;;
78860;SDS011;68211;45.774;15.892;2023-03-07T02:25:29;21.90;;;15.10;;
78860;SDS011;68211;45.774;15.892;2023-03-07T02:27:58;20.35;;;16.88;;
78860;SDS011;68211;45.774;15.892;2023-03-07T02:30:24;15.70;;;13.73;;
78860;SDS011;68211;45.774;15.892;2023-03-07T02:32:51;23.58;;;16.92;;
78860;SDS011;68211;45.774;15.892;2023-03-07T02:35:18;20.80;;;16.15;;
78860;SDS011;68211;45.774;15.892;2023-03-07T02:37:45;18.65;;;14.68;;
78860;SDS011;68211;45.774;15.892;2023-03-07T02:40:13;19.40;;;15.00;;
78860;SDS011;68211;45.774;15.892;2023-03-07T02:42:41;17.40;;;14.13;;
78860;SDS011;68211;45.774;15.892;2023-03-07T02:45:10;20.75;;;15.80;;
78860;SDS011;68211;45.774;15.892;2023-03-07T02:47:37;21.25;;;17.30;;
78860;SDS011;68211;45.774;15.892;2023-03-07T02:50:04;23.23;;;16.83;;
78860;SDS011;68211;45.774;15.892;2023-03-07T02:52:30;18.67;;;16.35;;
78860;SDS011;68211;45.774;15.892;2023-03-07T02:54:57;22.63;;;17.63;;
78860;SDS011;68211;45.774;15.892;2023-03-07T02:57:23;22.00;;;16.55;;
78860;SDS011;68211;45.774;15.892;2023-03-07T02:59:50;18.10;;;14.98;;
78860;SDS011;68211;45.774;15.892;2023-03-07T03:02:17;18.55;;;13.95;;
78860;SDS011;68211;45.774;15.892;2023-03-07T03:04:44;17.58;;;15.70;;
78860;SDS011;68211;45.774;15.892;2023-03-07T03:07:10;17.38;;;14.57;;
78860;SDS011;68211;45.774;15.892;2023-03-07T03:09:37;20.10;;;15.40;;
78860;SDS011;68211;45.774;15.892;2023-03-07T03:12:04;18.92;;;15.93;;
78860;SDS011;68211;45.774;15.892;2023-03-07T03:14:30;18.67;;;15.38;;
78860;SDS011;68211;45.774;15.892;2023-03-07T03:16:57;23.15;;;16.60;;
78860;SDS011;68211;45.774;15.892;2023-03-07T03:19:24;23.85;;;18.45;;
78860;SDS011;68211;45.774;15.892;2023-03-07T03:21:51;24.13;;;18.02;;
78860;SDS011;68211;45.774;15.892;2023-03-07T03:24:17;19.92;;;17.42;;
78860;SDS011;68211;45.774;15.892;2023-03-07T03:26:44;21.25;;;16.77;;
78860;SDS011;68211;45.774;15.892;2023-03-07T03:29:11;23.25;;;17.42;;
78860;SDS011;68211;45.774;15.892;2023-03-07T03:31:37;21.42;;;16.85;;
78860;SDS011;68211;45.774;15.892;2023-03-07T03:34:03;24.13;;;18.67;;
78860;SDS011;68211;45.774;15.892;2023-03-07T03:36:31;25.83;;;20.27;;
78860;SDS011;68211;45.774;15.892;2023-03-07T03:38:58;25.30;;;18.90;;
78860;SDS011;68211;45.774;15.892;2023-03-07T03:41:25;24.77;;;18.15;;
78860;SDS011;68211;45.774;15.892;2023-03-07T03:43:51;28.40;;;19.60;;
78860;SDS011;68211;45.774;15.892;2023-03-07T03:46:18;22.20;;;17.92;;
78860;SDS011;68211;45.774;15.892;2023-03-07T03:48:49;22.85;;;17.13;;
78860;SDS011;68211;45.774;15.892;2023-03-07T03:51:15;25.45;;;19.27;;
78860;SDS011;68211;45.774;15.892;2023-03-07T03:53:43;26.52;;;20.85;;
78860;SDS011;68211;45.774;15.892;2023-03-07T03:56:10;25.52;;;19.73;;
78860;SDS011;68211;45.774;15.892;2023-03-07T03:58:37;24.85;;;18.70;;
78860;SDS011;68211;45.774;15.892;2023-03-07T04:01:05;23.25;;;17.70;;
78860;SDS011;68211;45.774;15.892;2023-03-07T04:03:32;23.88;;;18.75;;
78860;SDS011;68211;45.774;15.892;2023-03-07T04:06:01;32.38;;;21.08;;
78860;SDS011;68211;45.774;15.892;2023-03-07T04:08:28;28.00;;;20.15;;
78860;SDS011;68211;45.774;15.892;2023-03-07T04:10:55;31.88;;;22.20;;
78860;SDS011;68211;45.774;15.892;2023-03-07T04:13:22;25.02;;;21.27;;
78860;SDS011;68211;45.774;15.892;2023-03-07T04:15:49;29.55;;;21.42;;
78860;SDS011;68211;45.774;15.892;2023-03-07T04:18:15;29.58;;;20.98;;
78860;SDS011;68211;45.774;15.892;2023-03-07T04:20:42;33.42;;;23.65;;
78860;SDS011;68211;45.774;15.892;2023-03-07T04:23:09;32.75;;;23.58;;
78860;SDS011;68211;45.774;15.892;2023-03-07T04:25:35;32.28;;;23.20;;
78860;SDS011;68211;45.774;15.892;2023-03-07T04:28:03;31.27;;;23.60;;
78860;SDS011;68211;45.774;15.892;2023-03-07T04:30:30;34.42;;;23.48;;
78860;SDS011;68211;45.774;15.892;2023-03-07T04:32:56;30.75;;;23.63;;
78860;SDS011;68211;45.774;15.892;2023-03-07T04:35:22;31.23;;;23.75;;
78860;SDS011;68211;45.774;15.892;2023-03-07T04:37:49;31.55;;;22.88;;
78860;SDS011;68211;45.774;15.892;2023-03-07T04:40:15;30.60;;;21.92;;
78860;SDS011;68211;45.774;15.892;2023-03-07T04:42:42;33.38;;;23.77;;
78860;SDS011;68211;45.774;15.892;2023-03-07T04:45:10;34.70;;;23.50;;
78860;SDS011;68211;45.774;15.892;2023-03-07T04:47:37;30.25;;;23.55;;
78860;SDS011;68211;45.774;15.892;2023-03-07T04:50:03;32.88;;;23.25;;
78860;SDS011;68211;45.774;15.892;2023-03-07T04:52:30;30.63;;;23.02;;
78860;SDS011;68211;45.774;15.892;2023-03-07T04:54:56;31.42;;;22.38;;
78860;SDS011;68211;45.774;15.892;2023-03-07T04:57:23;34.45;;;23.67;;
78860;SDS011;68211;45.774;15.892;2023-03-07T04:59:49;29.75;;;21.83;;
78860;SDS011;68211;45.774;15.892;2023-03-07T05:02:17;32.03;;;23.23;;
78860;SDS011;68211;45.774;15.892;2023-03-07T05:04:44;34.10;;;23.48;;
78860;SDS011;68211;45.774;15.892;2023-03-07T05:07:10;29.17;;;22.33;;
78860;SDS011;68211;45.774;15.892;2023-03-07T05:09:37;30.55;;;22.95;;
78860;SDS011;68211;45.774;15.892;2023-03-07T05:12:03;34.00;;;23.17;;
78860;SDS011;68211;45.774;15.892;2023-03-07T05:14:30;30.67;;;23.08;;
78860;SDS011;68211;45.774;15.892;2023-03-07T05:16:56;33.92;;;23.27;;
78860;SDS011;68211;45.774;15.892;2023-03-07T05:19:24;27.42;;;22.33;;
78860;SDS011;68211;45.774;15.892;2023-03-07T05:21:50;28.50;;;22.70;;
78860;SDS011;68211;45.774;15.892;2023-03-07T05:24:17;30.30;;;23.40;;
78860;SDS011;68211;45.774;15.892;2023-03-07T05:26:43;34.58;;;23.70;;
78860;SDS011;68211;45.774;15.892;2023-03-07T05:29:10;36.03;;;24.83;;
78860;SDS011;68211;45.774;15.892;2023-03-07T05:31:36;31.90;;;23.42;;
78860;SDS011;68211;45.774;15.892;2023-03-07T05:34:03;29.50;;;23.02;;
78860;SDS011;68211;45.774;15.892;2023-03-07T05:36:31;30.27;;;23.85;;
78860;SDS011;68211;45.774;15.892;2023-03-07T05:38:57;32.97;;;22.83;;
78860;SDS011;68211;45.774;15.892;2023-03-07T05:41:24;33.78;;;23.95;;
78860;SDS011;68211;45.774;15.892;2023-03-07T05:43:50;30.10;;;22.58;;
78860;SDS011;68211;45.774;15.892;2023-03-07T05:46:17;29.80;;;22.42;;
78860;SDS011;68211;45.774;15.892;2023-03-07T05:48:43;30.75;;;22.52;;
78860;SDS011;68211;45.774;15.892;2023-03-07T05:51:10;28.13;;;21.95;;
78860;SDS011;68211;45.774;15.892;2023-03-07T05:53:37;31.25;;;22.75;;
78860;SDS011;68211;45.774;15.892;2023-03-07T05:56:04;30.75;;;22.50;;
78860;SDS011;68211;45.774;15.892;2023-03-07T05:58:31;29.02;;;22.88;;
78860;SDS011;68211;45.774;15.892;2023-03-07T06:00:57;30.90;;;22.35;;
78860;SDS011;68211;45.774;15.892;2023-03-07T06:03:26;27.13;;;21.70;;
78860;SDS011;68211;45.774;15.892;2023-03-07T06:05:52;27.50;;;21.20;;
78860;SDS011;68211;45.774;15.892;2023-03-07T06:08:19;27.15;;;22.38;;
78860;SDS011;68211;45.774;15.892;2023-03-07T06:10:49;27.38;;;21.70;;
78860;SDS011;68211;45.774;15.892;2023-03-07T06:13:16;29.92;;;22.38;;
78860;SDS011;68211;45.774;15.892;2023-03-07T06:15:43;24.10;;;20.67;;
78860;SDS011;68211;45.774;15.892;2023-03-07T06:18:10;27.40;;;20.25;;
78860;SDS011;68211;45.774;15.892;2023-03-07T06:20:36;26.73;;;20.80;;
78860;SDS011;68211;45.774;15.892;2023-03-07T06:23:02;31.77;;;20.45;;
78860;SDS011;68211;45.774;15.892;2023-03-07T06:25:29;28.27;;;21.35;;
78860;SDS011;68211;45.774;15.892;2023-03-07T06:27:57;30.10;;;22.02;;
78860;SDS011;68211;45.774;15.892;2023-03-07T06:30:23;31.27;;;22.23;;
78860;SDS011;68211;45.774;15.892;2023-03-07T06:32:50;26.88;;;22.73;;
78860;SDS011;68211;45.774;15.892;2023-03-07T06:35:16;31.60;;;23.38;;
78860;SDS011;68211;45.774;15.892;2023-03-07T06:37:43;35.17;;;23.92;;
78860;SDS011;68211;45.774;15.892;2023-03-07T06:40:10;32.03;;;23.95;;
78860;SDS011;68211;45.774;15.892;2023-03-07T06:42:36;33.45;;;24.25;;
78860;SDS011;68211;45.774;15.892;2023-03-07T06:45:05;31.48;;;24.15;;
78860;SDS011;68211;45.774;15.892;2023-03-07T06:47:32;38.03;;;25.92;;
78860;SDS011;68211;45.774;15.892;2023-03-07T06:49:58;30.95;;;23.98;;
78860;SDS011;68211;45.774;15.892;2023-03-07T06:52:25;35.20;;;25.10;;
78860;SDS011;68211;45.774;15.892;2023-03-07T06:54:51;35.55;;;25.52;;
78860;SDS011;68211;45.774;15.892;2023-03-07T06:57:17;33.97;;;24.33;;
78860;SDS011;68211;45.774;15.892;2023-03-07T06:59:44;36.33;;;23.92;;
78860;SDS011;68211;45.774;15.892;2023-03-07T07:02:12;29.67;;;24.08;;
78860;SDS011;68211;45.774;15.892;2023-03-07T07:04:39;32.58;;;24.35;;
78860;SDS011;68211;45.774;15.892;2023-03-07T07:07:06;35.33;;;25.02;;
78860;SDS011;68211;45.774;15.892;2023-03-07T07:09:32;36.05;;;25.27;;
78860;SDS011;68211;45.774;15.892;2023-03-07T07:11:59;43.22;;;26.00;;
78860;SDS011;68211;45.774;15.892;2023-03-07T07:14:25;37.75;;;25.60;;
78860;SDS011;68211;45.774;15.892;2023-03-07T07:16:52;34.45;;;23.92;;
78860;SDS011;68211;45.774;15.892;2023-03-07T07:19:20;31.23;;;24.40;;
78860;SDS011;68211;45.774;15.892;2023-03-07T07:21:46;37.47;;;24.63;;
78860;SDS011;68211;45.774;15.892;2023-03-07T07:24:13;33.92;;;24.60;;
78860;SDS011;68211;45.774;15.892;2023-03-07T07:26:39;28.35;;;22.63;;
78860;SDS011;68211;45.774;15.892;2023-03-07T07:29:06;31.17;;;22.27;;
78860;SDS011;68211;45.774;15.892;2023-03-07T07:31:32;33.85;;;24.20;;
78860;SDS011;68211;45.774;15.892;2023-03-07T07:33:59;31.30;;;23.80;;
78860;SDS011;68211;45.774;15.892;2023-03-07T07:36:26;32.50;;;23.77;;
78860;SDS011;68211;45.774;15.892;2023-03-07T07:38:53;32.20;;;22.98;;
78860;SDS011;68211;45.774;15.892;2023-03-07T07:41:19;33.17;;;24.10;;
78860;SDS011;68211;45.774;15.892;2023-03-07T07:43:46;31.15;;;22.85;;
78860;SDS011;68211;45.774;15.892;2023-03-07T07:46:12;28.45;;;22.30;;
78860;SDS011;68211;45.774;15.892;2023-03-07T07:48:39;32.15;;;22.98;;
78860;SDS011;68211;45.774;15.892;2023-03-07T07:51:05;34.47;;;22.88;;
78860;SDS011;68211;45.774;15.892;2023-03-07T07:53:33;30.75;;;23.13;;
78860;SDS011;68211;45.774;15.892;2023-03-07T07:55:59;32.28;;;23.25;;
78860;SDS011;68211;45.774;15.892;2023-03-07T07:58:26;29.60;;;22.45;;
78860;SDS011;68211;45.774;15.892;2023-03-07T08:00:52;29.08;;;21.92;;
78860;SDS011;68211;45.774;15.892;2023-03-07T08:03:19;27.67;;;20.23;;
78860;SDS011;68211;45.774;15.892;2023-03-07T08:05:46;25.95;;;19.88;;
78860;SDS011;68211;45.774;15.892;2023-03-07T08:08:13;25.83;;;18.60;;
78860;SDS011;68211;45.774;15.892;2023-03-07T08:10:41;24.95;;;18.95;;
78860;SDS011;68211;45.774;15.892;2023-03-07T08:13:07;24.35;;;18.75;;
78860;SDS011;68211;45.774;15.892;2023-03-07T08:15:36;24.27;;;18.23;;
78860;SDS011;68211;45.774;15.892;2023-03-07T08:18:03;24.48;;;18.38;;
78860;SDS011;68211;45.774;15.892;2023-03-07T08:20:29;23.75;;;18.63;;
78860;SDS011;68211;45.774;15.892;2023-03-07T08:22:56;25.40;;;19.52;;
78860;SDS011;68211;45.774;15.892;2023-03-07T08:25:23;28.33;;;19.80;;
78860;SDS011;68211;45.774;15.892;2023-03-07T08:27:51;24.95;;;19.17;;
78860;SDS011;68211;45.774;15.892;2023-03-07T08:30:18;24.92;;;19.08;;
78860;SDS011;68211;45.774;15.892;2023-03-07T08:32:47;29.08;;;19.20;;
78860;SDS011;68211;45.774;15.892;2023-03-07T08:35:13;25.65;;;19.60;;
78860;SDS011;68211;45.774;15.892;2023-03-07T08:37:39;26.67;;;20.13;;
78860;SDS011;68211;45.774;15.892;2023-03-07T08:40:06;25.83;;;19.48;;
78860;SDS011;68211;45.774;15.892;2023-03-07T08:42:33;23.77;;;19.42;;
78860;SDS011;68211;45.774;15.892;2023-03-07T08:45:01;27.50;;;19.92;;
78860;SDS011;68211;45.774;15.892;2023-03-07T08:47:27;25.15;;;20.50;;
78860;SDS011;68211;45.774;15.892;2023-03-07T08:49:54;36.50;;;21.52;;
78860;SDS011;68211;45.774;15.892;2023-03-07T08:52:20;25.10;;;20.80;;
78860;SDS011;68211;45.774;15.892;2023-03-07T08:54:47;28.42;;;21.23;;
78860;SDS011;68211;45.774;15.892;2023-03-07T08:57:13;27.63;;;20.63;;
78860;SDS011;68211;45.774;15.892;2023-03-07T08:59:40;27.85;;;20.77;;
78860;SDS011;68211;45.774;15.892;2023-03-07T09:02:09;28.77;;;22.35;;
78860;SDS011;68211;45.774;15.892;2023-03-07T09:04:35;31.20;;;23.15;;
78860;SDS011;68211;45.774;15.892;2023-03-07T09:07:02;29.45;;;22.23;;
78860;SDS011;68211;45.774;15.892;2023-03-07T09:09:29;29.33;;;21.48;;
78860;SDS011;68211;45.774;15.892;2023-03-07T09:11:57;31.10;;;20.80;;
78860;SDS011;68211;45.774;15.892;2023-03-07T09:14:24;24.40;;;20.05;;
78860;SDS011;68211;45.774;15.892;2023-03-07T09:16:50;23.92;;;17.67;;
78860;SDS011;68211;45.774;15.892;2023-03-07T09:19:26;24.95;;;19.25;;
78860;SDS011;68211;45.774;15.892;2023-03-07T09:24:22;26.52;;;18.83;;
78860;SDS011;68211;45.774;15.892;2023-03-07T09:26:49;24.15;;;19.20;;
78860;SDS011;68211;45.774;15.892;2023-03-07T09:29:15;26.48;;;18.92;;
78860;SDS011;68211;45.774;15.892;2023-03-07T09:31:42;23.30;;;18.00;;
78860;SDS011;68211;45.774;15.892;2023-03-07T09:34:08;23.65;;;17.60;;
78860;SDS011;68211;45.774;15.892;2023-03-07T09:36:37;28.70;;;19.40;;
78860;SDS011;68211;45.774;15.892;2023-03-07T09:39:03;25.85;;;17.92;;
78860;SDS011;68211;45.774;15.892;2023-03-07T09:41:41;25.08;;;19.08;;
78860;SDS011;68211;45.774;15.892;2023-03-07T09:44:14;27.50;;;20.23;;
78860;SDS011;68211;45.774;15.892;2023-03-07T09:46:46;31.10;;;21.05;;
78860;SDS011;68211;45.774;15.892;2023-03-07T09:49:17;28.17;;;21.88;;
78860;SDS011;68211;45.774;15.892;2023-03-07T09:51:45;25.75;;;21.38;;
78860;SDS011;68211;45.774;15.892;2023-03-07T09:54:15;28.83;;;22.08;;
78860;SDS011;68211;45.774;15.892;2023-03-07T09:56:42;32.42;;;22.88;;
78860;SDS011;68211;45.774;15.892;2023-03-07T09:59:12;29.42;;;22.42;;
78860;SDS011;68211;45.774;15.892;2023-03-07T10:01:48;25.33;;;20.73;;
78860;SDS011;68211;45.774;15.892;2023-03-07T10:04:16;30.17;;;22.08;;
78860;SDS011;68211;45.774;15.892;2023-03-07T10:06:47;31.48;;;22.65;;
78860;SDS011;68211;45.774;15.892;2023-03-07T10:09:16;26.17;;;21.45;;
78860;SDS011;68211;45.774;15.892;2023-03-07T10:11:58;30.40;;;22.27;;
78860;SDS011;68211;45.774;15.892;2023-03-07T10:14:34;29.58;;;22.33;;
78860;SDS011;68211;45.774;15.892;2023-03-07T10:17:06;33.92;;;24.05;;
78860;SDS011;68211;45.774;15.892;2023-03-07T10:19:40;29.75;;;22.23;;
78860;SDS011;68211;45.774;15.892;2023-03-07T10:22:14;29.63;;;22.88;;
78860;SDS011;68211;45.774;15.892;2023-03-07T10:24:49;30.05;;;21.02;;
78860;SDS011;68211;45.774;15.892;2023-03-07T10:27:18;26.50;;;21.17;;
78860;SDS011;68211;45.774;15.892;2023-03-07T10:29:49;29.58;;;21.50;;
78860;SDS011;68211;45.774;15.892;2023-03-07T10:32:18;26.02;;;20.35;;
78860;SDS011;68211;45.774;15.892;2023-03-07T10:37:14;28.77;;;21.02;;
78860;SDS011;68211;45.774;15.892;2023-03-07T10:39:43;24.17;;;19.45;;
78860;SDS011;68211;45.774;15.892;2023-03-07T10:42:11;27.40;;;18.48;;
78860;SDS011;68211;45.774;15.892;2023-03-07T10:44:38;22.05;;;18.80;;
78860;SDS011;68211;45.774;15.892;2023-03-07T10:47:04;23.77;;;18.67;;
78860;SDS011;68211;45.774;15.892;2023-03-07T10:49:31;23.05;;;18.35;;
78860;SDS011;68211;45.774;15.892;2023-03-07T10:52:00;23.02;;;17.65;;
78860;SDS011;68211;45.774;15.892;2023-03-07T10:54:31;24.02;;;18.98;;
78860;SDS011;68211;45.774;15.892;2023-03-07T10:57:07;23.17;;;17.60;;
78860;SDS011;68211;45.774;15.892;2023-03-07T10:59:34;26.98;;;18.92;;
78860;SDS011;68211;45.774;15.892;2023-03-07T11:02:02;24.38;;;18.00;;
78860;SDS011;68211;45.774;15.892;2023-03-07T11:04:29;29.40;;;19.27;;
78860;SDS011;68211;45.774;15.892;2023-03-07T11:07:18;28.08;;;19.98;;
78860;SDS011;68211;45.774;15.892;2023-03-07T11:09:48;24.70;;;19.92;;
78860;SDS011;68211;45.774;15.892;2023-03-07T11:12:16;21.77;;;18.45;;
78860;SDS011;68211;45.774;15.892;2023-03-07T11:14:45;26.13;;;20.08;;
78860;SDS011;68211;45.774;15.892;2023-03-07T11:17:15;22.90;;;18.15;;
78860;SDS011;68211;45.774;15.892;2023-03-07T11:19:44;24.92;;;17.33;;
78860;SDS011;68211;45.774;15.892;2023-03-07T11:22:22;21.88;;;18.17;;
78860;SDS011;68211;45.774;15.892;2023-03-07T11:24:51;21.10;;;17.00;;
78860;SDS011;68211;45.774;15.892;2023-03-07T11:29:44;21.73;;;16.13;;
78860;SDS011;68211;45.774;15.892;2023-03-07T11:32:13;21.90;;;15.73;;
78860;SDS011;68211;45.774;15.892;2023-03-07T11:34:43;18.90;;;15.25;;
78860;SDS011;68211;45.774;15.892;2023-03-07T11:37:28;25.55;;;15.55;;
78860;SDS011;68211;45.774;15.892;2023-03-07T11:40:02;23.75;;;14.82;;
78860;SDS011;68211;45.774;15.892;2023-03-07T11:42:36;19.58;;;14.23;;
78860;SDS011;68211;45.774;15.892;2023-03-07T11:45:06;21.88;;;14.20;;
78860;SDS011;68211;45.774;15.892;2023-03-07T11:47:42;18.33;;;14.55;;
78860;SDS011;68211;45.774;15.892;2023-03-07T11:50:20;18.58;;;14.15;;
78860;SDS011;68211;45.774;15.892;2023-03-07T11:52:54;19.35;;;13.63;;
78860;SDS011;68211;45.774;15.892;2023-03-07T11:55:28;20.42;;;13.68;;
78860;SDS011;68211;45.774;15.892;2023-03-07T11:58:04;16.45;;;11.93;;
78860;SDS011;68211;45.774;15.892;2023-03-07T12:00:32;12.90;;;11.50;;
78860;SDS011;68211;45.774;15.892;2023-03-07T12:06:04;13.93;;;10.38;;
78860;SDS011;68211;45.774;15.892;2023-03-07T12:08:36;15.10;;;9.07;;
78860;SDS011;68211;45.774;15.892;2023-03-07T12:11:10;10.77;;;7.22;;
78860;SDS011;68211;45.774;15.892;2023-03-07T12:13:43;12.38;;;7.28;;
78860;SDS011;68211;45.774;15.892;2023-03-07T12:16:17;12.18;;;7.07;;
78860;SDS011;68211;45.774;15.892;2023-03-07T12:18:53;12.88;;;6.80;;
78860;SDS011;68211;45.774;15.892;2023-03-07T12:21:26;9.23;;;7.38;;
78860;SDS011;68211;45.774;15.892;2023-03-07T12:23:58;11.38;;;7.75;;
78860;SDS011;68211;45.774;15.892;2023-03-07T12:26:27;11.93;;;8.05;;
78860;SDS011;68211;45.774;15.892;2023-03-07T12:28:59;12.70;;;7.88;;
78860;SDS011;68211;45.774;15.892;2023-03-07T12:31:27;11.07;;;7.35;;
78860;SDS011;68211;45.774;15.892;2023-03-07T12:33:58;12.52;;;7.88;;
78860;SDS011;68211;45.774;15.892;2023-03-07T12:36:28;9.68;;;7.57;;
78860;SDS011;68211;45.774;15.892;2023-03-07T12:38:58;15.82;;;8.07;;
78860;SDS011;68211;45.774;15.892;2023-03-07T12:41:33;10.93;;;6.65;;
78860;SDS011;68211;45.774;15.892;2023-03-07T12:44:02;10.50;;;6.78;;
78860;SDS011;68211;45.774;15.892;2023-03-07T12:46:31;10.40;;;6.50;;
78860;SDS011;68211;45.774;15.892;2023-03-07T12:49:00;11.45;;;6.68;;
78860;SDS011;68211;45.774;15.892;2023-03-07T12:51:28;11.75;;;6.88;;
78860;SDS011;68211;45.774;15.892;2023-03-07T12:53:57;10.52;;;6.50;;
78860;SDS011;68211;45.774;15.892;2023-03-07T12:56:25;13.27;;;6.50;;
78860;SDS011;68211;45.774;15.892;2023-03-07T12:58:57;10.38;;;6.68;;
78860;SDS011;68211;45.774;15.892;2023-03-07T13:01:26;11.55;;;7.88;;
78860;SDS011;68211;45.774;15.892;2023-03-07T13:03:55;12.70;;;7.13;;
78860;SDS011;68211;45.774;15.892;2023-03-07T13:06:22;7.60;;;6.07;;
78860;SDS011;68211;45.774;15.892;2023-03-07T13:08:49;9.98;;;6.50;;
78860;SDS011;68211;45.774;15.892;2023-03-07T13:11:17;7.57;;;5.57;;
78860;SDS011;68211;45.774;15.892;2023-03-07T13:13:51;9.57;;;5.97;;
78860;SDS011;68211;45.774;15.892;2023-03-07T13:16:31;8.02;;;5.88;;
78860;SDS011;68211;45.774;15.892;2023-03-07T13:21:39;8.82;;;4.82;;
78860;SDS011;68211;45.774;15.892;2023-03-07T13:26:52;9.82;;;4.40;;
78860;SDS011;68211;45.774;15.892;2023-03-07T13:29:21;9.00;;;4.70;;
78860;SDS011;68211;45.774;15.892;2023-03-07T13:32:41;6.25;;;4.18;;
78860;SDS011;68211;45.774;15.892;2023-03-07T13:35:01;5.70;;;4.25;;
78860;SDS011;68211;45.774;15.892;2023-03-07T13:43:30;9.40;;;4.53;;
78860;SDS011;68211;45.774;15.892;2023-03-07T13:45:59;8.38;;;4.65;;
78860;SDS011;68211;45.774;15.892;2023-03-07T13:51:12;6.35;;;4.63;;
78860;SDS011;68211;45.774;15.892;2023-03-07T13:53:38;6.80;;;3.80;;
78860;SDS011;68211;45.774;15.892;2023-03-07T13:56:08;8.68;;;4.43;;
78860;SDS011;68211;45.774;15.892;2023-03-07T13:58:37;11.60;;;4.50;;
78860;SDS011;68211;45.774;15.892;2023-03-07T14:01:05;7.72;;;4.10;;
78860;SDS011;68211;45.774;15.892;2023-03-07T14:03:38;6.75;;;4.03;;
78860;SDS011;68211;45.774;15.892;2023-03-07T14:06:07;9.82;;;4.78;;
78860;SDS011;68211;45.774;15.892;2023-03-07T14:08:35;6.75;;;4.30;;
78860;SDS011;68211;45.774;15.892;2023-03-07T14:11:02;8.10;;;4.72;;
78860;SDS011;68211;45.774;15.892;2023-03-07T14:13:33;7.18;;;4.38;;
78860;SDS011;68211;45.774;15.892;2023-03-07T14:16:05;10.43;;;4.32;;
78860;SDS011;68211;45.774;15.892;2023-03-07T14:18:39;5.07;;;3.83;;
78860;SDS011;68211;45.774;15.892;2023-03-07T14:21:10;6.85;;;3.70;;
78860;SDS011;68211;45.774;15.892;2023-03-07T14:23:50;5.10;;;3.90;;
78860;SDS011;68211;45.774;15.892;2023-03-07T14:26:20;6.68;;;3.95;;
78860;SDS011;68211;45.774;15.892;2023-03-07T14:28:50;5.75;;;4.15;;
78860;SDS011;68211;45.774;15.892;2023-03-07T14:31:21;6.68;;;3.58;;
78860;SDS011;68211;45.774;15.892;2023-03-07T14:33:48;8.13;;;3.97;;
78860;SDS011;68211;45.774;15.892;2023-03-07T14:36:15;3.97;;;3.00;;
78860;SDS011;68211;45.774;15.892;2023-03-07T14:38:45;4.00;;;2.83;;
78860;SDS011;68211;45.774;15.892;2023-03-07T14:41:17;6.20;;;3.40;;
78860;SDS011;68211;45.774;15.892;2023-03-07T14:43:48;5.63;;;2.90;;
78860;SDS011;68211;45.774;15.892;2023-03-07T14:46:19;4.20;;;2.67;;